Time;durP1;ratioP1;P1;durP2;ratioP2;P2;SDS_P1;SDS_P2;PMS_P1;PMS_P2;Temp;Humidity;BMP_temperature;BMP_pressure;BME280_temperature;BME280_humidity;BME280_pressure;Samples;Min_cycle;Max_cycle;Signal;HPM_P1;HPM_P2
2023/06/01 00:01:58;;;;;;;6.13;5.07;;;22.20;42.90;;;;;;5034064;28;20653;-47
2023/06/01 00:04:23;;;;;;;6.43;4.47;;;22.20;42.70;;;;;;5034045;28;20581;-47
2023/06/01 00:06:49;;;;;;;6.20;4.83;;;22.10;42.60;;;;;;5046573;28;20235;-47
2023/06/01 00:09:15;;;;;;;5.23;4.10;;;22.10;42.40;;;;;;5047661;28;20204;-47
2023/06/01 00:11:40;;;;;;;7.73;5.00;;;22.10;42.50;;;;;;5033809;28;20193;-47
2023/06/01 00:14:06;;;;;;;4.80;4.40;;;22.10;42.50;;;;;;5033812;28;20570;-47
2023/06/01 00:16:32;;;;;;;5.30;4.57;;;22.10;42.60;;;;;;5033248;28;20208;-48
2023/06/01 00:19:00;;;;;;;6.00;4.20;;;22.00;42.80;;;;;;5033582;28;20275;-47
2023/06/01 00:21:27;;;;;;;5.43;4.97;;;21.90;42.80;;;;;;5033692;28;20431;-48
2023/06/01 00:23:52;;;;;;;5.53;4.23;;;21.90;42.90;;;;;;5032085;28;20435;-48
2023/06/01 00:26:18;;;;;;;5.10;4.60;;;21.80;42.70;;;;;;5033224;28;20416;-47
2023/06/01 00:28:44;;;;;;;5.40;4.90;;;21.70;43.00;;;;;;5033414;28;20190;-48
2023/06/01 00:31:09;;;;;;;8.40;5.67;;;21.70;43.20;;;;;;5033635;28;20193;-47
2023/06/01 00:33:35;;;;;;;5.17;4.57;;;21.70;43.40;;;;;;5033512;28;20278;-47
2023/06/01 00:36:01;;;;;;;5.20;4.70;;;21.60;43.40;;;;;;5033156;28;20202;-47
2023/06/01 00:38:26;;;;;;;12.17;5.50;;;21.50;43.40;;;;;;5033428;28;20225;-47
2023/06/01 00:40:52;;;;;;;5.63;4.87;;;21.50;43.40;;;;;;5033559;28;20189;-47
2023/06/01 00:43:18;;;;;;;7.33;5.33;;;21.50;43.80;;;;;;5032437;28;20652;-47
2023/06/01 00:45:44;;;;;;;6.80;5.87;;;21.50;43.60;;;;;;5033018;28;20252;-48
2023/06/01 00:48:14;;;;;;;5.90;5.30;;;21.50;43.70;;;;;;5033224;28;20467;-48
2023/06/01 00:50:41;;;;;;;8.13;5.93;;;21.40;43.70;;;;;;5031579;28;20209;-48
2023/06/01 00:53:12;;;;;;;6.00;5.40;;;21.50;43.80;;;;;;5034574;28;20774;-47
2023/06/01 00:55:38;;;;;;;8.57;6.30;;;21.50;43.80;;;;;;5052702;28;20445;-47
2023/06/01 00:58:06;;;;;;;7.47;6.13;;;21.30;44.50;;;;;;5032765;28;20479;-48
2023/06/01 01:00:32;;;;;;;8.50;5.97;;;21.10;45.00;;;;;;5032934;28;20452;-47
2023/06/01 01:03:00;;;;;;;7.00;6.30;;;21.10;44.90;;;;;;5033076;28;20511;-47
2023/06/01 01:05:26;;;;;;;6.90;5.60;;;21.00;44.90;;;;;;5034164;28;20639;-47
2023/06/01 01:08:11;;;;;;;6.10;5.50;;;21.00;45.20;;;;;;5052386;28;20459;-48
2023/06/01 01:10:49;;;;;;;8.13;6.37;;;21.00;45.20;;;;;;5035300;28;20455;-47
2023/06/01 01:13:36;;;;;;;9.07;5.90;;;21.00;45.30;;;;;;5032650;28;20485;-48
2023/06/01 01:16:15;;;;;;;6.93;5.60;;;20.90;45.60;;;;;;5039395;28;20962;-47
2023/06/01 01:19:06;;;;;;;6.97;6.20;;;20.70;46.00;;;;;;5052543;28;20490;-48
2023/06/01 01:21:38;;;;;;;7.67;5.40;;;20.60;46.10;;;;;;5052538;28;20447;-48
2023/06/01 01:24:12;;;;;;;8.03;5.63;;;20.50;46.10;;;;;;5052586;28;20772;-48
2023/06/01 01:26:57;;;;;;;6.40;5.20;;;20.60;46.00;;;;;;5052080;28;20459;-48
2023/06/01 01:29:25;;;;;;;6.17;5.33;;;20.70;45.80;;;;;;5052569;28;20434;-48
2023/06/01 01:31:51;;;;;;;7.77;6.40;;;20.70;45.70;;;;;;5052356;28;20537;-47
2023/06/01 01:34:19;;;;;;;8.17;5.53;;;20.70;45.80;;;;;;5052423;28;20526;-48
2023/06/01 01:36:45;;;;;;;6.63;6.03;;;20.70;45.80;;;;;;5051765;28;20445;-48
2023/06/01 01:39:11;;;;;;;8.80;5.80;;;20.70;45.70;;;;;;5052135;28;20483;-47
2023/06/01 01:41:36;;;;;;;11.07;6.40;;;20.70;45.60;;;;;;5051395;28;20926;-47
2023/06/01 01:44:03;;;;;;;6.23;4.97;;;20.70;45.60;;;;;;5051439;28;20279;-48
2023/06/01 01:46:51;;;;;;;5.70;5.20;;;20.70;45.60;;;;;;5051389;28;20705;-48
2023/06/01 01:49:32;;;;;;;7.80;4.87;;;20.60;45.40;;;;;;5051913;28;20431;-47
2023/06/01 01:52:26;;;;;;;12.60;5.67;;;20.50;45.40;;;;;;5051964;28;20427;-47
2023/06/01 01:54:53;;;;;;;8.87;5.20;;;20.50;45.50;;;;;;5036043;28;20432;-48
2023/06/01 01:57:19;;;;;;;7.30;5.00;;;20.40;45.40;;;;;;5031495;28;20468;-47
2023/06/01 01:59:49;;;;;;;6.50;5.33;;;20.40;45.50;;;;;;5031965;28;20458;-48
2023/06/01 02:02:14;;;;;;;7.03;5.07;;;20.30;45.50;;;;;;5031794;28;20550;-47
2023/06/01 02:04:45;;;;;;;8.80;5.30;;;20.30;45.50;;;;;;5031749;28;20508;-47
2023/06/01 02:07:11;;;;;;;6.63;4.70;;;20.30;45.70;;;;;;5047276;28;20208;-47
2023/06/01 02:09:38;;;;;;;6.70;5.30;;;20.30;45.80;;;;;;5040761;28;20423;-49
2023/06/01 02:12:05;;;;;;;7.10;5.93;;;20.30;45.80;;;;;;5031572;28;20438;-48
2023/06/01 02:14:30;;;;;;;8.90;5.50;;;20.30;45.90;;;;;;5031562;28;20530;-51
2023/06/01 02:16:56;;;;;;;6.33;4.80;;;20.20;46.00;;;;;;5031294;28;20886;-48
2023/06/01 02:19:21;;;;;;;5.80;5.20;;;20.20;46.20;;;;;;5031828;28;20247;-52
2023/06/01 02:21:47;;;;;;;6.30;4.70;;;20.10;46.30;;;;;;5031904;28;20649;-49
2023/06/01 02:24:13;;;;;;;8.23;5.80;;;20.10;46.40;;;;;;5031975;28;20197;-50
2023/06/01 02:26:39;;;;;;;5.23;4.67;;;20.10;46.40;;;;;;5031265;28;20591;-50
2023/06/01 02:29:07;;;;;;;5.27;4.77;;;20.00;46.60;;;;;;5031796;28;20287;-52
2023/06/01 02:31:34;;;;;;;5.70;5.20;;;19.90;46.70;;;;;;5031460;28;20233;-51
2023/06/01 02:34:01;;;;;;;4.97;4.43;;;19.80;47.10;;;;;;5031568;28;20427;-47
2023/06/01 02:36:28;;;;;;;5.90;4.63;;;19.70;47.50;;;;;;5029421;28;20416;-51
2023/06/01 02:38:55;;;;;;;5.07;4.57;;;19.80;47.40;;;;;;5031367;28;20491;-52
2023/06/01 02:41:21;;;;;;;13.93;5.10;;;19.80;47.30;;;;;;5031428;28;20833;-50
2023/06/01 02:43:47;;;;;;;6.33;4.50;;;19.70;47.40;;;;;;5031385;28;20489;-48
2023/06/01 02:46:12;;;;;;;5.10;4.00;;;19.70;47.50;;;;;;5030812;28;20440;-47
2023/06/01 02:48:38;;;;;;;4.90;4.40;;;19.70;47.50;;;;;;5031604;28;20189;-50
2023/06/01 02:51:05;;;;;;;6.33;4.90;;;19.70;47.50;;;;;;5031246;28;20589;-47
2023/06/01 02:53:31;;;;;;;5.17;4.40;;;19.70;47.40;;;;;;5036015;28;20185;-49
2023/06/01 02:55:56;;;;;;;7.00;4.60;;;19.60;47.30;;;;;;5047920;28;20450;-49
2023/06/01 02:58:22;;;;;;;5.07;4.47;;;19.60;47.40;;;;;;5031417;28;20506;-52
2023/06/01 03:00:47;;;;;;;7.80;4.70;;;19.60;47.40;;;;;;5031307;28;20201;-51
2023/06/01 03:03:13;;;;;;;7.33;5.10;;;19.60;47.50;;;;;;5029699;28;20205;-47
2023/06/01 03:05:39;;;;;;;6.23;4.80;;;19.50;47.50;;;;;;5033717;28;20232;-47
2023/06/01 03:08:06;;;;;;;6.47;5.60;;;19.60;47.60;;;;;;5054579;28;20561;-50
2023/06/01 03:10:31;;;;;;;8.10;5.30;;;19.20;48.90;;;;;;5038005;28;20502;-48
2023/06/01 03:12:57;;;;;;;8.23;5.20;;;19.10;49.20;;;;;;5033815;28;20432;-47
2023/06/01 03:15:23;;;;;;;7.80;5.30;;;19.10;49.10;;;;;;5034931;28;20200;-50
2023/06/01 03:17:48;;;;;;;5.97;4.80;;;19.10;49.00;;;;;;5034328;28;20259;-52
2023/06/01 03:20:17;;;;;;;5.63;5.03;;;19.20;48.80;;;;;;5035054;28;20637;-50
2023/06/01 03:22:46;;;;;;;7.80;4.83;;;19.20;48.70;;;;;;5034745;28;21863;-51
2023/06/01 03:25:12;;;;;;;5.70;5.13;;;19.20;48.50;;;;;;5034751;28;20448;-48
2023/06/01 03:27:39;;;;;;;6.03;4.60;;;19.20;48.40;;;;;;5033229;28;20515;-47
2023/06/01 03:30:10;;;;;;;5.97;4.50;;;19.20;48.30;;;;;;5034344;28;20443;-49
2023/06/01 03:32:40;;;;;;;5.03;4.20;;;19.10;48.10;;;;;;5034731;28;20436;-47
2023/06/01 03:35:07;;;;;;;5.17;4.67;;;19.10;48.30;;;;;;5034624;28;20443;-49
2023/06/01 03:37:38;;;;;;;6.03;4.90;;;19.10;48.30;;;;;;5034067;28;20515;-50
2023/06/01 03:40:10;;;;;;;9.20;5.07;;;19.10;48.30;;;;;;5034415;28;20527;-47
2023/06/01 03:42:41;;;;;;;5.40;4.90;;;19.10;48.20;;;;;;5034298;28;20454;-50
2023/06/01 03:45:08;;;;;;;8.43;5.60;;;19.10;48.30;;;;;;5034374;28;20428;-47
2023/06/01 03:47:33;;;;;;;6.73;5.40;;;19.10;48.50;;;;;;5033863;28;20793;-47
2023/06/01 03:50:01;;;;;;;5.60;4.90;;;19.10;48.50;;;;;;5034480;28;20424;-47
2023/06/01 03:52:27;;;;;;;5.53;5.03;;;19.00;48.40;;;;;;5034382;28;20224;-47
2023/06/01 03:54:54;;;;;;;5.50;4.80;;;19.00;48.60;;;;;;5048547;28;20433;-47
2023/06/01 03:57:20;;;;;;;5.50;5.00;;;19.00;48.70;;;;;;5038221;28;20833;-47
2023/06/01 03:59:46;;;;;;;6.17;4.67;;;18.90;48.70;;;;;;5034155;28;20928;-47
2023/06/01 04:02:11;;;;;;;8.00;4.87;;;18.90;48.90;;;;;;5033901;28;20428;-50
2023/06/01 04:04:37;;;;;;;6.77;5.60;;;18.90;49.00;;;;;;5033999;28;20235;-47
2023/06/01 04:07:03;;;;;;;6.97;4.90;;;18.90;49.10;;;;;;5048157;28;20581;-47
2023/06/01 04:09:32;;;;;;;5.80;4.60;;;18.90;49.00;;;;;;5032620;28;20955;-48
2023/06/01 04:11:58;;;;;;;7.93;4.70;;;18.90;49.20;;;;;;5033789;28;20427;-48
2023/06/01 04:14:23;;;;;;;6.40;4.70;;;18.90;49.00;;;;;;5033964;28;20428;-47
2023/06/01 04:16:49;;;;;;;7.83;4.90;;;19.00;49.00;;;;;;5033183;28;20194;-46
2023/06/01 04:19:15;;;;;;;5.00;4.50;;;19.00;48.90;;;;;;5032426;28;20311;-47
2023/06/01 04:21:41;;;;;;;6.30;4.57;;;19.00;49.00;;;;;;5032065;28;20671;-48
2023/06/01 04:24:06;;;;;;;5.83;4.80;;;18.90;49.20;;;;;;5033562;28;20197;-49
2023/06/01 04:26:32;;;;;;;8.40;5.20;;;18.80;49.20;;;;;;5033250;28;20511;-48
2023/06/01 04:28:58;;;;;;;7.50;4.47;;;18.80;49.10;;;;;;5033420;28;20323;-46
2023/06/01 04:31:24;;;;;;;5.93;4.47;;;18.80;49.00;;;;;;5033355;28;20621;-50
2023/06/01 04:33:52;;;;;;;6.57;4.57;;;18.90;48.90;;;;;;5033547;28;20503;-47
2023/06/01 04:36:21;;;;;;;5.67;4.47;;;18.90;48.70;;;;;;5032834;28;20201;-47
2023/06/01 04:38:52;;;;;;;6.23;5.63;;;19.00;48.70;;;;;;5033133;28;20495;-47
2023/06/01 04:41:21;;;;;;;8.70;4.70;;;19.10;48.70;;;;;;5033104;28;20467;-51
2023/06/01 04:43:51;;;;;;;6.00;5.27;;;19.10;48.80;;;;;;5033237;28;20505;-47
2023/06/01 04:46:18;;;;;;;6.63;6.03;;;19.10;48.80;;;;;;5032806;28;20431;-47
2023/06/01 04:48:44;;;;;;;9.90;4.77;;;19.20;49.00;;;;;;5031500;28;20420;-47
2023/06/01 04:51:10;;;;;;;5.57;4.97;;;19.10;49.10;;;;;;5032994;28;20464;-47
2023/06/01 04:53:36;;;;;;;6.37;5.17;;;18.70;49.30;;;;;;5038190;28;20500;-48
2023/06/01 04:56:01;;;;;;;6.90;5.90;;;18.70;49.50;;;;;;5048072;28;20204;-47
2023/06/01 04:58:27;;;;;;;5.93;5.27;;;18.70;49.70;;;;;;5032656;28;20228;-48
2023/06/01 05:00:53;;;;;;;5.80;5.20;;;18.80;49.50;;;;;;5032938;28;20224;-47
2023/06/01 05:03:20;;;;;;;6.37;5.77;;;18.90;49.80;;;;;;5032879;28;20204;-47
2023/06/01 05:05:45;;;;;;;5.93;5.43;;;18.60;50.70;;;;;;5036462;28;20491;-47
2023/06/01 05:08:11;;;;;;;6.40;5.80;;;18.80;50.50;;;;;;5052543;28;20450;-48
2023/06/01 05:10:38;;;;;;;5.10;4.47;;;18.90;50.40;;;;;;5034860;28;20194;-47
2023/06/01 05:13:04;;;;;;;9.13;5.97;;;19.10;50.20;;;;;;5032426;28;20198;-47
2023/06/01 05:15:30;;;;;;;7.43;5.63;;;19.00;50.60;;;;;;5030390;28;20432;-48
2023/06/01 05:17:56;;;;;;;9.37;5.23;;;19.20;50.20;;;;;;5032434;28;20228;-46
2023/06/01 05:20:21;;;;;;;5.70;5.10;;;19.30;49.80;;;;;;5032561;28;20468;-48
2023/06/01 05:22:47;;;;;;;5.53;4.93;;;19.50;49.70;;;;;;5032483;28;20652;-48
2023/06/01 05:25:13;;;;;;;5.93;5.17;;;19.60;49.50;;;;;;5032359;28;20197;-47
2023/06/01 05:27:39;;;;;;;6.27;5.67;;;19.80;49.50;;;;;;5031974;28;20432;-47
2023/06/01 05:30:06;;;;;;;5.63;5.03;;;19.80;49.30;;;;;;5031969;28;20221;-47
2023/06/01 05:32:32;;;;;;;7.30;4.30;;;20.00;49.40;;;;;;5032257;28;20200;-47
2023/06/01 05:34:57;;;;;;;8.13;6.00;;;20.10;49.30;;;;;;5032114;28;20477;-47
2023/06/01 05:37:23;;;;;;;13.40;5.57;;;20.20;49.10;;;;;;5031739;28;20220;-48
2023/06/01 05:39:48;;;;;;;5.03;4.63;;;20.20;49.00;;;;;;5031586;28;20189;-51
2023/06/01 05:42:14;;;;;;;7.97;5.40;;;20.40;49.00;;;;;;5030911;28;20200;-47
2023/06/01 05:44:40;;;;;;;6.83;5.63;;;20.50;48.80;;;;;;5032026;28;20246;-47
2023/06/01 05:47:06;;;;;;;8.00;5.33;;;20.50;48.30;;;;;;5031782;28;20197;-48
2023/06/01 05:49:31;;;;;;;9.30;4.67;;;20.60;48.10;;;;;;5031823;28;20675;-47
2023/06/01 05:51:58;;;;;;;5.70;4.93;;;20.70;48.10;;;;;;5031798;28;20200;-48
2023/06/01 05:54:23;;;;;;;5.93;5.30;;;20.80;47.80;;;;;;5043659;28;20193;-47
2023/06/01 05:56:49;;;;;;;8.00;4.77;;;20.90;47.60;;;;;;5041761;28;20427;-48
2023/06/01 05:59:15;;;;;;;5.87;4.70;;;21.00;47.10;;;;;;5031665;28;20224;-48
2023/06/01 06:01:42;;;;;;;8.10;5.27;;;21.10;46.20;;;;;;5031796;28;20201;-47
2023/06/01 06:04:07;;;;;;;7.40;5.07;;;21.20;45.80;;;;;;5031651;28;20195;-50
2023/06/01 06:06:33;;;;;;;6.63;4.47;;;21.30;45.70;;;;;;5039994;28;20467;-49
2023/06/01 06:08:58;;;;;;;5.27;4.83;;;21.40;45.90;;;;;;5047500;28;20242;-47
2023/06/01 06:11:25;;;;;;;5.33;4.83;;;21.50;45.80;;;;;;5031542;28;20193;-50
2023/06/01 06:13:51;;;;;;;10.80;5.80;;;21.60;46.10;;;;;;5031450;28;20646;-48
2023/06/01 06:16:16;;;;;;;7.97;4.90;;;21.70;45.70;;;;;;5030974;28;20416;-50
2023/06/01 06:18:42;;;;;;;9.57;5.47;;;21.80;45.70;;;;;;5031429;28;20263;-48
2023/06/01 06:21:08;;;;;;;7.67;5.10;;;22.00;45.30;;;;;;5031532;28;20193;-48
2023/06/01 06:23:33;;;;;;;5.60;5.10;;;22.10;45.10;;;;;;5031479;28;20244;-47
2023/06/01 06:25:59;;;;;;;13.23;4.20;;;22.30;45.10;;;;;;5030877;28;20272;-47
2023/06/01 06:28:26;;;;;;;5.60;4.63;;;22.40;44.70;;;;;;5031311;28;20193;-51
2023/06/01 06:30:52;;;;;;;6.53;5.10;;;22.60;44.00;;;;;;5031390;28;20243;-48
2023/06/01 06:33:17;;;;;;;7.07;5.00;;;22.70;43.80;;;;;;5029448;28;20933;-48
2023/06/01 06:35:43;;;;;;;9.20;5.63;;;22.90;43.40;;;;;;5030942;28;20193;-48
2023/06/01 06:38:11;;;;;;;6.40;4.80;;;23.00;43.10;;;;;;5031124;28;20221;-47
2023/06/01 06:40:37;;;;;;;5.63;5.13;;;23.20;43.20;;;;;;5031098;28;20232;-47
2023/06/01 06:43:02;;;;;;;6.93;5.00;;;23.30;43.10;;;;;;5034947;28;20777;-47
2023/06/01 06:45:28;;;;;;;6.13;5.20;;;23.30;42.90;;;;;;5034845;28;20234;-48
2023/06/01 06:47:53;;;;;;;6.90;5.10;;;23.50;42.70;;;;;;5033946;28;20196;-47
2023/06/01 06:50:20;;;;;;;5.57;4.50;;;23.60;42.20;;;;;;5035122;28;20721;-49
2023/06/01 06:52:45;;;;;;;4.43;4.00;;;23.80;41.80;;;;;;5034972;28;20649;-49
2023/06/01 06:55:11;;;;;;;7.67;4.60;;;24.00;41.20;;;;;;5052890;28;20431;-47
2023/06/01 06:57:38;;;;;;;5.23;4.37;;;24.00;41.00;;;;;;5038348;28;20225;-49
2023/06/01 07:00:06;;;;;;;8.33;4.83;;;24.10;41.10;;;;;;5033225;28;20327;-48
2023/06/01 07:02:32;;;;;;;8.97;4.13;;;24.20;41.00;;;;;;5034719;28;20424;-48
2023/06/01 07:04:57;;;;;;;6.20;4.93;;;24.20;40.70;;;;;;5034833;28;20513;-51
2023/06/01 07:07:23;;;;;;;8.40;5.30;;;24.30;40.60;;;;;;5051979;28;20199;-49
2023/06/01 07:09:48;;;;;;;4.30;3.90;;;24.40;41.20;;;;;;5044203;28;20645;-47
2023/06/01 07:12:15;;;;;;;7.57;4.97;;;24.50;40.50;;;;;;5034792;28;20205;-48
2023/06/01 07:14:40;;;;;;;5.10;4.60;;;24.60;40.60;;;;;;5034793;28;20272;-48
2023/06/01 07:17:06;;;;;;;5.67;4.90;;;24.80;39.80;;;;;;5034297;28;20416;-48
2023/06/01 07:19:32;;;;;;;5.73;4.70;;;25.00;39.60;;;;;;5034681;28;20200;-48
2023/06/01 07:22:00;;;;;;;5.40;4.90;;;25.20;39.00;;;;;;5034660;28;20240;-47
2023/06/01 07:24:26;;;;;;;5.20;4.70;;;25.20;38.60;;;;;;5034697;28;20482;-48
2023/06/01 07:26:51;;;;;;;6.97;4.90;;;25.20;38.80;;;;;;5032725;28;20428;-48
2023/06/01 07:29:17;;;;;;;4.50;4.10;;;25.30;39.80;;;;;;5034494;28;20450;-48
2023/06/01 07:31:43;;;;;;;5.13;4.07;;;25.50;39.40;;;;;;5034365;28;20197;-47
2023/06/01 07:34:09;;;;;;;6.77;4.20;;;25.60;38.90;;;;;;5034431;28;20470;-48
2023/06/01 07:36:36;;;;;;;8.50;4.97;;;25.70;38.20;;;;;;5034129;28;20356;-47
2023/06/01 07:39:05;;;;;;;4.87;4.37;;;25.90;38.70;;;;;;5034440;28;20491;-48
2023/06/01 07:41:32;;;;;;;7.03;4.30;;;26.00;38.30;;;;;;5034343;28;20430;-48
2023/06/01 07:43:58;;;;;;;6.40;4.10;;;26.10;38.40;;;;;;5034302;28;20420;-48
2023/06/01 07:46:23;;;;;;;5.13;4.53;;;26.30;38.10;;;;;;5034023;28;20428;-48
2023/06/01 07:48:50;;;;;;;4.53;4.13;;;26.50;37.90;;;;;;5034078;28;20556;-48
2023/06/01 07:51:16;;;;;;;9.00;4.70;;;26.50;38.30;;;;;;5033905;28;20197;-48
2023/06/01 07:53:42;;;;;;;4.07;3.40;;;26.70;38.30;;;;;;5038066;28;20427;-48
2023/06/01 07:56:07;;;;;;;7.33;4.17;;;26.80;38.60;;;;;;5049117;28;20436;-48
2023/06/01 07:58:33;;;;;;;11.13;4.77;;;27.00;37.80;;;;;;5034089;28;20278;-48
2023/06/01 08:00:58;;;;;;;4.40;4.00;;;27.10;37.30;;;;;;5033934;28;20204;-48
2023/06/01 08:03:25;;;;;;;4.97;3.90;;;27.20;36.80;;;;;;5034090;28;20590;-49
2023/06/01 08:05:57;;;;;;;4.80;4.20;;;27.40;37.20;;;;;;5038230;28;20236;-48
2023/06/01 08:08:23;;;;;;;5.17;3.87;;;27.50;37.20;;;;;;5053971;28;20555;-48
2023/06/01 08:10:49;;;;;;;4.10;3.60;;;27.70;36.00;;;;;;5034754;28;20436;-48
2023/06/01 08:13:15;;;;;;;5.00;4.50;;;27.80;35.70;;;;;;5033554;28;20436;-48
2023/06/01 08:15:42;;;;;;;5.27;3.23;;;27.90;35.30;;;;;;5033206;28;20431;-49
2023/06/01 08:18:08;;;;;;;5.40;4.00;;;28.10;35.30;;;;;;5033612;28;20237;-52
2023/06/01 08:20:35;;;;;;;6.00;4.20;;;28.30;34.60;;;;;;5031994;28;20435;-53
2023/06/01 08:23:02;;;;;;;5.17;4.40;;;28.30;34.60;;;;;;5033387;28;20197;-51
2023/06/01 08:25:28;;;;;;;5.57;4.40;;;28.30;34.90;;;;;;5033119;28;20845;-53
2023/06/01 08:27:54;;;;;;;5.30;4.53;;;28.30;34.30;;;;;;5033610;28;20472;-52
2023/06/01 08:30:20;;;;;;;5.23;4.53;;;28.20;34.70;;;;;;5033693;28;20200;-52
2023/06/01 08:32:45;;;;;;;5.13;4.63;;;28.20;34.80;;;;;;5033498;28;20284;-53
2023/06/01 08:35:11;;;;;;;5.17;4.20;;;28.40;34.40;;;;;;5033066;28;20239;-53
2023/06/01 08:37:36;;;;;;;6.30;3.93;;;28.50;34.60;;;;;;5033271;28;20231;-52
2023/06/01 08:40:05;;;;;;;6.70;4.60;;;28.50;34.10;;;;;;5033241;28;20565;-52
2023/06/01 08:42:46;;;;;;;8.33;4.83;;;28.70;34.40;;;;;;5033258;28;20193;-51
2023/06/01 08:45:13;;;;;;;5.13;4.40;;;28.90;34.30;;;;;;5039918;28;20431;-52
2023/06/01 08:47:40;;;;;;;6.13;4.67;;;28.90;32.80;;;;;;5052047;28;20435;-53
2023/06/01 08:50:08;;;;;;;7.67;4.53;;;29.10;33.10;;;;;;5053047;28;20828;-51
2023/06/01 08:52:36;;;;;;;4.20;3.80;;;29.30;33.00;;;;;;5052751;28;20538;-51
2023/06/01 08:55:03;;;;;;;7.27;4.60;;;29.50;33.30;;;;;;5035345;28;20466;-53
2023/06/01 08:57:32;;;;;;;5.17;4.70;;;29.60;32.90;;;;;;5032828;28;20476;-53
2023/06/01 08:59:58;;;;;;;4.60;4.20;;;29.80;32.70;;;;;;5033048;28;20864;-48
2023/06/01 09:02:25;;;;;;;8.20;4.10;;;29.80;32.50;;;;;;5032680;28;20424;-53
2023/06/01 09:04:52;;;;;;;6.73;5.03;;;30.00;32.10;;;;;;5032150;28;20471;-51
2023/06/01 09:07:18;;;;;;;6.90;4.70;;;30.10;32.20;;;;;;5049166;28;20427;-49
2023/06/01 09:09:43;;;;;;;4.80;4.30;;;30.20;32.40;;;;;;5042612;28;20428;-48
2023/06/01 09:12:25;;;;;;;4.67;4.27;;;30.50;32.50;;;;;;5031227;28;20420;-49
2023/06/01 09:15:16;;;;;;;5.27;4.70;;;30.70;31.70;;;;;;5032688;28;20296;-49
2023/06/01 09:17:43;;;;;;;4.93;4.43;;;31.00;30.80;;;;;;5041103;28;20478;-48
2023/06/01 09:20:26;;;;;;;5.13;4.63;;;31.00;31.10;;;;;;5052552;28;20452;-48
2023/06/01 09:22:53;;;;;;;5.20;4.43;;;31.20;30.30;;;;;;5052623;28;20418;-49
2023/06/01 09:25:26;;;;;;;4.40;4.10;;;31.30;31.00;;;;;;5051763;28;20430;-48
2023/06/01 09:27:53;;;;;;;5.13;4.40;;;31.20;30.50;;;;;;5052374;28;20439;-49
2023/06/01 09:30:20;;;;;;;6.00;4.80;;;31.30;30.00;;;;;;5052044;28;20415;-49
2023/06/01 09:32:52;;;;;;;4.90;4.50;;;31.40;30.00;;;;;;5052210;28;20430;-49
2023/06/01 09:35:43;;;;;;;4.47;4.07;;;31.50;30.70;;;;;;5051709;28;20439;-49
2023/06/01 09:38:10;;;;;;;8.83;5.23;;;31.80;30.50;;;;;;5051149;28;20478;-49
2023/06/01 09:40:38;;;;;;;12.33;4.67;;;32.00;30.00;;;;;;5051344;28;20427;-48
2023/06/01 09:43:19;;;;;;;4.90;4.40;;;32.30;29.80;;;;;;5051894;28;20845;-49
2023/06/01 09:45:45;;;;;;;5.23;4.30;;;32.50;29.50;;;;;;5051434;28;20454;-49
2023/06/01 09:48:22;;;;;;;8.30;4.40;;;32.70;29.70;;;;;;5051779;28;20486;-49
2023/06/01 09:50:47;;;;;;;5.17;4.77;;;32.90;28.50;;;;;;5051660;28;20691;-49
2023/06/01 09:53:14;;;;;;;4.90;4.40;;;33.00;29.10;;;;;;5049987;28;20446;-49
2023/06/01 09:56:00;;;;;;;9.00;5.37;;;33.20;29.80;;;;;;5031547;28;20189;-49
2023/06/01 09:58:26;;;;;;;7.00;4.90;;;33.30;28.20;;;;;;5031711;28;20867;-50
2023/06/01 10:00:52;;;;;;;9.40;4.90;;;33.40;28.10;;;;;;5031891;28;20420;-49
2023/06/01 10:03:21;;;;;;;7.10;4.97;;;33.60;28.20;;;;;;5031878;28;20412;-49
2023/06/01 10:05:47;;;;;;;5.20;4.40;;;33.60;27.60;;;;;;5033884;28;20466;-49
2023/06/01 10:08:14;;;;;;;5.93;4.80;;;33.80;28.50;;;;;;5051481;28;20431;-49
2023/06/01 10:10:43;;;;;;;8.70;5.43;;;34.00;28.10;;;;;;5033570;28;20428;-49
2023/06/01 10:13:09;;;;;;;7.57;5.20;;;34.10;27.10;;;;;;5031519;28;20557;-50
2023/06/01 10:15:36;;;;;;;5.77;5.20;;;34.30;27.00;;;;;;5030636;28;20467;-48
2023/06/01 10:18:03;;;;;;;6.17;5.03;;;34.40;26.70;;;;;;5031335;28;20487;-49
2023/06/01 10:20:32;;;;;;;6.00;5.40;;;34.10;26.50;;;;;;5031434;28;20841;-49
2023/06/01 10:22:59;;;;;;;6.40;4.70;;;34.20;26.30;;;;;;5031416;28;20444;-50
2023/06/01 10:25:28;;;;;;;7.80;5.13;;;34.30;27.20;;;;;;5031128;28;20436;-49
2023/06/01 10:28:04;;;;;;;6.87;5.50;;;34.30;27.50;;;;;;5031656;28;20424;-49
2023/06/01 10:30:29;;;;;;;6.23;5.30;;;34.50;27.40;;;;;;5038585;28;20434;-49
2023/06/01 10:32:55;;;;;;;5.90;5.40;;;34.70;26.20;;;;;;5049614;28;20435;-50
2023/06/01 10:35:30;;;;;;;5.60;5.10;;;34.80;25.90;;;;;;5051127;28;20196;-49
2023/06/01 10:38:22;;;;;;;6.30;5.70;;;35.00;26.40;;;;;;5051044;28;20695;-49
2023/06/01 10:40:47;;;;;;;5.37;4.87;;;35.20;25.90;;;;;;5048443;28;20473;-49
2023/06/01 10:43:35;;;;;;;5.63;5.03;;;35.40;26.00;;;;;;5051137;28;20427;-50
2023/06/01 10:46:01;;;;;;;6.13;4.97;;;35.40;26.60;;;;;;5050502;28;20220;-52
2023/06/01 10:48:52;;;;;;;6.20;5.13;;;35.40;26.20;;;;;;5051071;28;20463;-49
2023/06/01 10:51:20;;;;;;;5.83;4.90;;;35.60;25.90;;;;;;5051009;28;20223;-49
2023/06/01 10:53:46;;;;;;;5.70;5.00;;;35.70;25.00;;;;;;5044721;28;20442;-49
2023/06/01 10:56:23;;;;;;;5.77;5.20;;;35.60;25.20;;;;;;5030842;28;20424;-49
2023/06/01 10:59:07;;;;;;;5.23;4.77;;;35.50;23.90;;;;;;5029448;28;20232;-49
2023/06/01 11:01:37;;;;;;;6.23;5.60;;;35.30;24.80;;;;;;5031022;28;20547;-49
2023/06/01 11:04:03;;;;;;;7.10;4.87;;;35.20;24.50;;;;;;5031030;28;20503;-49
2023/06/01 11:06:35;;;;;;;10.30;5.17;;;35.10;24.30;;;;;;5040611;28;20561;-49
2023/06/01 11:09:05;;;;;;;6.10;4.80;;;35.10;24.80;;;;;;5046787;28;20204;-50
2023/06/01 11:11:52;;;;;;;5.23;4.83;;;35.30;25.60;;;;;;5031008;28;20435;-53
2023/06/01 11:14:19;;;;;;;6.13;5.53;;;35.50;26.50;;;;;;5038229;28;20525;-51
2023/06/01 11:16:45;;;;;;;8.47;5.37;;;35.60;26.30;;;;;;5050576;28;20431;-50
2023/06/01 11:19:21;;;;;;;7.63;5.03;;;35.70;25.40;;;;;;5050699;28;20493;-52
2023/06/01 11:21:47;;;;;;;6.80;5.23;;;35.60;25.50;;;;;;5050711;28;20930;-49
2023/06/01 11:24:14;;;;;;;7.93;5.03;;;35.50;25.70;;;;;;5049390;28;20427;-53
2023/06/01 11:26:48;;;;;;;6.80;4.80;;;35.50;25.60;;;;;;5050320;28;20463;-49
2023/06/01 11:29:22;;;;;;;5.90;5.40;;;35.40;25.60;;;;;;5054611;28;20869;-50
2023/06/01 11:31:54;;;;;;;9.60;5.00;;;35.40;25.70;;;;;;5054374;28;20434;-49
2023/06/01 11:34:41;;;;;;;5.63;5.10;;;35.50;25.40;;;;;;5053806;28;20423;-53
2023/06/01 11:37:17;;;;;;;5.60;5.20;;;35.70;25.30;;;;;;5046857;28;20463;-51
2023/06/01 11:39:43;;;;;;;13.07;8.70;;;35.70;25.40;;;;;;5034300;28;20448;-50
2023/06/01 11:42:10;;;;;;;7.37;6.60;;;35.80;25.30;;;;;;5034288;28;20424;-50
2023/06/01 11:44:38;;;;;;;8.37;6.20;;;36.10;26.10;;;;;;5034058;28;20212;-50
2023/06/01 11:47:05;;;;;;;9.77;5.33;;;36.20;24.50;;;;;;5033979;28;20431;-50
2023/06/01 11:49:39;;;;;;;6.10;4.97;;;36.10;24.90;;;;;;5033802;28;20471;-51
2023/06/01 11:52:08;;;;;;;6.37;5.77;;;36.20;24.80;;;;;;5032292;28;20431;-49
2023/06/01 11:54:34;;;;;;;5.53;5.00;;;36.30;24.90;;;;;;5046859;28;20796;-49
2023/06/01 11:57:03;;;;;;;8.20;6.13;;;36.40;24.50;;;;;;5042840;28;20432;-50
2023/06/01 11:59:37;;;;;;;5.67;5.17;;;36.40;25.60;;;;;;5033801;28;20216;-50
2023/06/01 12:02:03;;;;;;;10.50;5.47;;;36.20;24.80;;;;;;5033978;28;20419;-53
2023/06/01 12:04:29;;;;;;;5.60;5.10;;;36.10;24.70;;;;;;5033817;28;21017;-49
2023/06/01 12:07:05;;;;;;;7.53;5.53;;;36.20;25.10;;;;;;5046773;28;20228;-51
2023/06/01 12:09:31;;;;;;;5.50;5.00;;;36.30;25.50;;;;;;5045363;28;20201;-49
2023/06/01 12:11:57;;;;;;;5.77;4.70;;;36.30;25.70;;;;;;5033633;28;20430;-50
2023/06/01 12:14:23;;;;;;;5.60;5.10;;;36.60;24.90;;;;;;5033902;28;20196;-49
2023/06/01 12:16:58;;;;;;;5.73;5.30;;;36.70;24.80;;;;;;5033146;28;20831;-49
2023/06/01 12:19:26;;;;;;;6.57;5.37;;;36.60;25.20;;;;;;5033127;28;20270;-54
2023/06/01 12:21:56;;;;;;;7.60;5.63;;;36.70;25.80;;;;;;5033542;28;20435;-52
2023/06/01 12:24:35;;;;;;;5.27;4.70;;;36.70;24.20;;;;;;5032497;28;20961;-51
2023/06/01 12:27:02;;;;;;;5.80;5.20;;;36.80;24.30;;;;;;5033864;28;20435;-50
2023/06/01 12:29:39;;;;;;;6.00;5.50;;;37.00;24.10;;;;;;5033765;28;20423;-50
2023/06/01 12:32:05;;;;;;;13.00;5.00;;;37.10;23.80;;;;;;5040681;28;20843;-51
2023/06/01 12:34:31;;;;;;;5.47;4.93;;;36.80;24.00;;;;;;5053266;28;20442;-52
2023/06/01 12:36:56;;;;;;;5.63;5.00;;;36.60;24.60;;;;;;5053059;28;20272;-50
2023/06/01 12:39:36;;;;;;;4.80;4.33;;;36.50;25.30;;;;;;5052251;28;20569;-51
2023/06/01 12:42:05;;;;;;;6.10;5.60;;;36.70;25.10;;;;;;5053308;28;20199;-49
2023/06/01 12:44:32;;;;;;;8.83;5.20;;;36.60;24.40;;;;;;5051546;28;20441;-53
2023/06/01 12:46:59;;;;;;;5.40;4.80;;;36.70;25.30;;;;;;5052969;28;20525;-50
2023/06/01 12:49:25;;;;;;;5.17;4.67;;;36.60;25.50;;;;;;5053039;28;20514;-50
2023/06/01 12:51:50;;;;;;;5.97;5.10;;;36.60;24.90;;;;;;5053354;28;20549;-50